sensor_id;sensor_type;location;lat;lon;timestamp;pressure;altitude;pressure_sealevel;temperature;humidity
21357;BME280;10836;53.068;18.234;2022-12-22T00:02:23;100433.44;;;4.09;100.00
21357;BME280;10836;53.068;18.234;2022-12-22T00:05:13;100433.78;;;4.12;100.00
21357;BME280;10836;53.068;18.234;2022-12-22T00:08:00;100423.81;;;4.13;100.00
21357;BME280;10836;53.068;18.234;2022-12-22T00:10:46;100427.09;;;4.15;100.00
21357;BME280;10836;53.068;18.234;2022-12-22T00:13:33;100428.75;;;4.16;100.00
21357;BME280;10836;53.068;18.234;2022-12-22T00:16:19;100418.75;;;4.16;100.00
21357;BME280;10836;53.068;18.234;2022-12-22T00:19:12;100421.81;;;4.20;100.00
21357;BME280;10836;53.068;18.234;2022-12-22T00:22:05;100434.97;;;4.16;100.00
21357;BME280;10836;53.068;18.234;2022-12-22T00:24:51;100434.63;;;4.13;100.00
21357;BME280;10836;53.068;18.234;2022-12-22T00:27:36;100430.03;;;4.13;100.00
21357;BME280;10836;53.068;18.234;2022-12-22T00:30:22;100432.03;;;4.18;100.00
21357;BME280;10836;53.068;18.234;2022-12-22T00:33:10;100439.66;;;4.09;100.00
21357;BME280;10836;53.068;18.234;2022-12-22T00:35:57;100432.97;;;4.12;100.00
21357;BME280;10836;53.068;18.234;2022-12-22T00:38:42;100435.78;;;4.17;100.00
21357;BME280;10836;53.068;18.234;2022-12-22T00:41:27;100436.50;;;4.12;100.00
21357;BME280;10836;53.068;18.234;2022-12-22T00:44:13;100426.41;;;4.08;100.00
21357;BME280;10836;53.068;18.234;2022-12-22T00:46:58;100426.41;;;4.08;100.00
21357;BME280;10836;53.068;18.234;2022-12-22T00:49:46;100432.38;;;4.10;100.00
21357;BME280;10836;53.068;18.234;2022-12-22T00:52:34;100436.84;;;4.04;100.00
21357;BME280;10836;53.068;18.234;2022-12-22T00:55:24;100439.44;;;4.11;100.00
21357;BME280;10836;53.068;18.234;2022-12-22T00:58:16;100432.28;;;4.05;100.00
21357;BME280;10836;53.068;18.234;2022-12-22T01:01:03;100450.13;;;4.06;100.00
21357;BME280;10836;53.068;18.234;2022-12-22T01:03:49;100445.53;;;4.06;100.00
21357;BME280;10836;53.068;18.234;2022-12-22T01:06:35;100449.19;;;4.12;100.00
21357;BME280;10836;53.068;18.234;2022-12-22T01:09:21;100447.06;;;4.14;100.00
21357;BME280;10836;53.068;18.234;2022-12-22T01:12:20;100447.53;;;4.11;100.00
21357;BME280;10836;53.068;18.234;2022-12-22T01:15:16;100436.25;;;4.14;100.00
21357;BME280;10836;53.068;18.234;2022-12-22T01:18:03;100431.22;;;4.06;100.00
21357;BME280;10836;53.068;18.234;2022-12-22T01:20:50;100426.84;;;4.16;100.00
21357;BME280;10836;53.068;18.234;2022-12-22T01:23:36;100431.44;;;4.16;100.00
21357;BME280;10836;53.068;18.234;2022-12-22T01:26:23;100430.84;;;4.14;100.00
21357;BME280;10836;53.068;18.234;2022-12-22T01:29:08;100424.97;;;4.17;100.00
21357;BME280;10836;53.068;18.234;2022-12-22T01:31:54;100420.75;;;4.21;100.00
21357;BME280;10836;53.068;18.234;2022-12-22T01:34:40;100421.22;;;4.18;100.00
21357;BME280;10836;53.068;18.234;2022-12-22T01:37:26;100410.88;;;4.15;100.00
21357;BME280;10836;53.068;18.234;2022-12-22T01:40:17;100409.34;;;4.19;100.00
21357;BME280;10836;53.068;18.234;2022-12-22T01:43:25;100413.22;;;4.23;100.00
21357;BME280;10836;53.068;18.234;2022-12-22T01:46:31;100415.34;;;4.21;100.00
21357;BME280;10836;53.068;18.234;2022-12-22T01:49:25;100416.16;;;4.21;100.00
21357;BME280;10836;53.068;18.234;2022-12-22T01:52:16;100414.50;;;4.20;100.00
21357;BME280;10836;53.068;18.234;2022-12-22T01:55:07;100409.25;;;4.14;100.00
21357;BME280;10836;53.068;18.234;2022-12-22T01:57:54;100408.75;;;4.17;100.00
21357;BME280;10836;53.068;18.234;2022-12-22T02:00:40;100402.66;;;4.10;100.00
21357;BME280;10836;53.068;18.234;2022-12-22T02:03:27;100408.19;;;4.15;100.00
21357;BME280;10836;53.068;18.234;2022-12-22T02:06:32;100404.88;;;4.24;100.00
21357;BME280;10836;53.068;18.234;2022-12-22T02:09:39;100405.69;;;4.25;100.00
21357;BME280;10836;53.068;18.234;2022-12-22T02:19:01;100390.28;;;4.25;100.00
21357;BME280;10836;53.068;18.234;2022-12-22T02:21:55;100383.38;;;4.18;100.00
21357;BME280;10836;53.068;18.234;2022-12-22T02:24:50;100392.66;;;4.22;100.00
21357;BME280;10836;53.068;18.234;2022-12-22T02:27:39;100395.00;;;4.18;100.00
21357;BME280;10836;53.068;18.234;2022-12-22T02:30:27;100385.84;;;4.19;100.00
21357;BME280;10836;53.068;18.234;2022-12-22T02:33:12;100381.97;;;4.15;100.00
21357;BME280;10836;53.068;18.234;2022-12-22T02:36:21;100382.69;;;4.11;100.00
21357;BME280;10836;53.068;18.234;2022-12-22T02:42:14;100382.44;;;4.24;100.00
21357;BME280;10836;53.068;18.234;2022-12-22T02:45:10;100385.84;;;4.19;100.00
21357;BME280;10836;53.068;18.234;2022-12-22T02:48:04;100386.09;;;4.06;100.00
21357;BME280;10836;53.068;18.234;2022-12-22T02:54:15;100383.84;;;4.15;100.00
21357;BME280;10836;53.068;18.234;2022-12-22T02:57:07;100383.38;;;4.18;100.00
21357;BME280;10836;53.068;18.234;2022-12-22T02:59:53;100379.84;;;4.17;100.00
21357;BME280;10836;53.068;18.234;2022-12-22T03:02:38;100378.09;;;4.23;100.00
21357;BME280;10836;53.068;18.234;2022-12-22T03:05:25;100384.06;;;4.25;100.00
21357;BME280;10836;53.068;18.234;2022-12-22T03:08:10;100384.78;;;4.20;100.00
21357;BME280;10836;53.068;18.234;2022-12-22T03:10:56;100381.63;;;4.12;100.00
21357;BME280;10836;53.068;18.234;2022-12-22T03:13:41;100377.28;;;4.11;100.00
21357;BME280;10836;53.068;18.234;2022-12-22T03:16:27;100369.28;;;4.16;100.00
21357;BME280;10836;53.068;18.234;2022-12-22T03:19:12;100361.41;;;4.14;100.00
21357;BME280;10836;53.068;18.234;2022-12-22T03:21:58;100370.81;;;4.12;100.00
21357;BME280;10836;53.068;18.234;2022-12-22T03:24:43;100374.44;;;4.17;100.00
21357;BME280;10836;53.068;18.234;2022-12-22T03:27:29;100377.16;;;4.17;100.00
21357;BME280;10836;53.068;18.234;2022-12-22T03:29:56;100361.19;;;4.16;100.00
21357;BME280;10836;53.068;18.234;2022-12-22T03:32:23;100358.47;;;4.16;100.00
21357;BME280;10836;53.068;18.234;2022-12-22T03:34:50;100365.88;;;4.20;100.00
21357;BME280;10836;53.068;18.234;2022-12-22T03:37:17;100364.81;;;4.21;100.00
21357;BME280;10836;53.068;18.234;2022-12-22T03:39:44;100356.84;;;4.15;100.00
21357;BME280;10836;53.068;18.234;2022-12-22T03:42:11;100366.34;;;4.17;100.00
21357;BME280;10836;53.068;18.234;2022-12-22T03:44:56;100368.81;;;4.19;100.00
21357;BME280;10836;53.068;18.234;2022-12-22T03:47:41;100353.06;;;4.16;100.00
21357;BME280;10836;53.068;18.234;2022-12-22T03:50:10;100351.91;;;4.12;100.00
21357;BME280;10836;53.068;18.234;2022-12-22T03:52:37;100352.16;;;4.10;100.00
21357;BME280;10836;53.068;18.234;2022-12-22T03:55:04;100349.09;;;4.07;100.00
21357;BME280;10836;53.068;18.234;2022-12-22T03:57:31;100352.84;;;4.06;100.00
21357;BME280;10836;53.068;18.234;2022-12-22T03:59:58;100337.13;;;4.03;100.00
21357;BME280;10836;53.068;18.234;2022-12-22T04:02:25;100328.91;;;3.97;100.00
21357;BME280;10836;53.068;18.234;2022-12-22T04:04:52;100326.09;;;3.92;100.00
21357;BME280;10836;53.068;18.234;2022-12-22T04:07:19;100326.78;;;3.99;100.00
21357;BME280;10836;53.068;18.234;2022-12-22T04:09:46;100320.81;;;3.97;100.00
21357;BME280;10836;53.068;18.234;2022-12-22T04:12:31;100329.88;;;3.91;100.00
21357;BME280;10836;53.068;18.234;2022-12-22T04:15:17;100337.16;;;3.91;100.00
21357;BME280;10836;53.068;18.234;2022-12-22T04:17:44;100329.88;;;3.91;100.00
21357;BME280;10836;53.068;18.234;2022-12-22T04:20:11;100321.75;;;3.91;100.00
21357;BME280;10836;53.068;18.234;2022-12-22T04:22:38;100320.03;;;3.85;100.00
21357;BME280;10836;53.068;18.234;2022-12-22T04:25:05;100331.19;;;3.89;100.00
21357;BME280;10836;53.068;18.234;2022-12-22T04:27:32;100322.34;;;3.93;100.00
21357;BME280;10836;53.068;18.234;2022-12-22T04:29:59;100325.03;;;3.93;100.00
21357;BME280;10836;53.068;18.234;2022-12-22T04:32:26;100326.63;;;3.89;100.00
21357;BME280;10836;53.068;18.234;2022-12-22T04:34:53;100327.75;;;3.93;100.00
21357;BME280;10836;53.068;18.234;2022-12-22T04:37:20;100326.09;;;3.92;100.00
21357;BME280;10836;53.068;18.234;2022-12-22T04:39:47;100324.00;;;3.94;100.00
21357;BME280;10836;53.068;18.234;2022-12-22T04:42:14;100322.03;;;3.90;100.00
21357;BME280;10836;53.068;18.234;2022-12-22T04:44:41;100333.69;;;3.79;100.00
21357;BME280;10836;53.068;18.234;2022-12-22T04:47:08;100319.56;;;3.88;100.00
21357;BME280;10836;53.068;18.234;2022-12-22T04:49:35;100332.97;;;3.83;100.00
21357;BME280;10836;53.068;18.234;2022-12-22T04:52:02;100325.91;;;3.82;100.00
21357;BME280;10836;53.068;18.234;2022-12-22T04:54:29;100317.22;;;3.80;100.00
21357;BME280;10836;53.068;18.234;2022-12-22T04:56:55;100323.94;;;3.78;100.00
21357;BME280;10836;53.068;18.234;2022-12-22T04:59:23;100329.09;;;3.79;100.00
21357;BME280;10836;53.068;18.234;2022-12-22T05:01:50;100330.84;;;3.85;100.00
21357;BME280;10836;53.068;18.234;2022-12-22T05:04:17;100318.28;;;3.79;100.00
21357;BME280;10836;53.068;18.234;2022-12-22T05:06:49;100323.00;;;3.72;100.00
21357;BME280;10836;53.068;18.234;2022-12-22T05:09:16;100323.13;;;3.77;100.00
21357;BME280;10836;53.068;18.234;2022-12-22T05:11:43;100321.00;;;3.79;100.00
21357;BME280;10836;53.068;18.234;2022-12-22T05:14:10;100321.00;;;3.79;100.00
21357;BME280;10836;53.068;18.234;2022-12-22T05:16:37;100315.13;;;3.82;100.00
21357;BME280;10836;53.068;18.234;2022-12-22T05:19:04;100314.06;;;3.83;100.00
21357;BME280;10836;53.068;18.234;2022-12-22T05:21:31;100309.25;;;3.85;100.00
21357;BME280;10836;53.068;18.234;2022-12-22T05:23:58;100313.81;;;3.85;100.00
21357;BME280;10836;53.068;18.234;2022-12-22T05:26:24;100313.34;;;3.88;100.00
21357;BME280;10836;53.068;18.234;2022-12-22T05:28:51;100301.84;;;3.81;100.00
21357;BME280;10836;53.068;18.234;2022-12-22T05:31:21;100300.56;;;3.83;100.00
21357;BME280;10836;53.068;18.234;2022-12-22T05:33:49;100308.84;;;3.93;100.00
21357;BME280;10836;53.068;18.234;2022-12-22T05:36:16;100307.06;;;3.99;100.00
21357;BME280;10836;53.068;18.234;2022-12-22T05:38:43;100315.66;;;3.96;100.00
21357;BME280;10836;53.068;18.234;2022-12-22T05:41:10;100323.03;;;4.00;100.00
21357;BME280;10836;53.068;18.234;2022-12-22T05:43:38;100310.59;;;3.99;100.00
21357;BME280;10836;53.068;18.234;2022-12-22T05:46:07;100310.59;;;3.99;100.00
21357;BME280;10836;53.068;18.234;2022-12-22T05:48:35;100307.44;;;3.91;100.00
21357;BME280;10836;53.068;18.234;2022-12-22T05:51:07;100302.84;;;3.91;100.00
21357;BME280;10836;53.068;18.234;2022-12-22T05:53:35;100303.38;;;3.88;100.00
21357;BME280;10836;53.068;18.234;2022-12-22T05:56:03;100296.91;;;3.89;100.00
21357;BME280;10836;53.068;18.234;2022-12-22T05:58:30;100298.91;;;3.82;100.00
21357;BME280;10836;53.068;18.234;2022-12-22T06:00:59;100300.81;;;3.70;100.00
21357;BME280;10836;53.068;18.234;2022-12-22T06:03:27;100296.44;;;3.81;100.00
21357;BME280;10836;53.068;18.234;2022-12-22T06:05:55;100286.47;;;3.81;100.00
21357;BME280;10836;53.068;18.234;2022-12-22T06:08:23;100297.28;;;3.81;100.00
21357;BME280;10836;53.068;18.234;2022-12-22T06:10:50;100283.31;;;3.73;100.00
21357;BME280;10836;53.068;18.234;2022-12-22T06:13:19;100284.63;;;3.70;100.00
21357;BME280;10836;53.068;18.234;2022-12-22T06:15:47;100285.56;;;3.64;100.00
21357;BME280;10836;53.068;18.234;2022-12-22T06:18:14;100284.13;;;3.73;100.00
21357;BME280;10836;53.068;18.234;2022-12-22T06:20:40;100285.44;;;3.59;100.00
21357;BME280;10836;53.068;18.234;2022-12-22T06:23:07;100290.34;;;3.74;100.00
21357;BME280;10836;53.068;18.234;2022-12-22T06:25:34;100287.28;;;3.82;100.00
21357;BME280;10836;53.068;18.234;2022-12-22T06:28:02;100292.34;;;3.78;100.00
21357;BME280;10836;53.068;18.234;2022-12-22T06:30:28;100301.63;;;3.82;100.00
21357;BME280;10836;53.068;18.234;2022-12-22T06:33:00;100304.44;;;3.76;100.00
21357;BME280;10836;53.068;18.234;2022-12-22T06:35:27;100297.84;;;3.83;100.00
21357;BME280;10836;53.068;18.234;2022-12-22T06:37:54;100293.50;;;3.82;100.00
21357;BME280;10836;53.068;18.234;2022-12-22T06:40:21;100301.03;;;3.80;100.00
21357;BME280;10836;53.068;18.234;2022-12-22T06:42:48;100303.38;;;3.88;100.00
21357;BME280;10836;53.068;18.234;2022-12-22T06:45:37;100297.97;;;3.88;100.00
21357;BME280;10836;53.068;18.234;2022-12-22T06:48:06;100296.78;;;3.84;100.00
21357;BME280;10836;53.068;18.234;2022-12-22T06:50:33;100298.47;;;3.62;100.00
21357;BME280;10836;53.068;18.234;2022-12-22T06:53:01;100297.78;;;3.55;100.00
21357;BME280;10836;53.068;18.234;2022-12-22T06:55:28;100295.53;;;3.75;100.00
21357;BME280;10836;53.068;18.234;2022-12-22T06:57:55;100291.06;;;3.81;100.00
21357;BME280;10836;53.068;18.234;2022-12-22T07:00:22;100296.13;;;3.65;100.00
21357;BME280;10836;53.068;18.234;2022-12-22T07:02:49;100294.47;;;3.76;100.00
21357;BME280;10836;53.068;18.234;2022-12-22T07:05:16;100295.19;;;3.60;100.00
21357;BME280;10836;53.068;18.234;2022-12-22T07:07:43;100283.69;;;3.64;100.00
21357;BME280;10836;53.068;18.234;2022-12-22T07:10:11;100284.75;;;3.63;100.00
21357;BME280;10836;53.068;18.234;2022-12-22T07:12:38;100289.66;;;3.78;100.00
21357;BME280;10836;53.068;18.234;2022-12-22T07:15:05;100291.44;;;3.61;100.00
21357;BME280;10836;53.068;18.234;2022-12-22T07:17:33;100300.59;;;3.60;100.00
21357;BME280;10836;53.068;18.234;2022-12-22T07:20:00;100292.03;;;3.63;100.00
21357;BME280;10836;53.068;18.234;2022-12-22T07:22:27;100295.31;;;3.65;100.00
21357;BME280;10836;53.068;18.234;2022-12-22T07:24:57;100284.97;;;3.74;100.00
21357;BME280;10836;53.068;18.234;2022-12-22T07:27:24;100293.78;;;3.69;100.00
21357;BME280;10836;53.068;18.234;2022-12-22T07:29:51;100277.13;;;3.60;100.00
21357;BME280;10836;53.068;18.234;2022-12-22T07:32:18;100283.22;;;3.56;100.00
21357;BME280;10836;53.068;18.234;2022-12-22T07:34:45;100285.56;;;3.64;100.00
21357;BME280;10836;53.068;18.234;2022-12-22T07:37:12;100280.38;;;3.74;100.00
21357;BME280;10836;53.068;18.234;2022-12-22T07:39:39;100280.16;;;3.64;100.00
21357;BME280;10836;53.068;18.234;2022-12-22T07:42:06;100281.78;;;3.77;100.00
21357;BME280;10836;53.068;18.234;2022-12-22T07:44:51;100284.81;;;3.80;100.00
21357;BME280;10836;53.068;18.234;2022-12-22T07:47:19;100284.63;;;3.70;100.00
21357;BME280;10836;53.068;18.234;2022-12-22T07:49:45;100270.75;;;3.78;100.00
21357;BME280;10836;53.068;18.234;2022-12-22T07:52:31;100273.31;;;3.85;100.00
21357;BME280;10836;53.068;18.234;2022-12-22T07:54:58;100264.88;;;3.81;100.00
21357;BME280;10836;53.068;18.234;2022-12-22T07:57:25;100262.06;;;3.76;100.00
21357;BME280;10836;53.068;18.234;2022-12-22T07:59:52;100260.34;;;3.58;100.00
21357;BME280;10836;53.068;18.234;2022-12-22T08:02:19;100252.22;;;3.70;100.00
21357;BME280;10836;53.068;18.234;2022-12-22T08:04:46;100255.06;;;3.92;100.00
21357;BME280;10836;53.068;18.234;2022-12-22T08:07:13;100252.13;;;3.93;100.00
21357;BME280;10836;53.068;18.234;2022-12-22T08:09:40;100243.97;;;4.05;100.00
21357;BME280;10836;53.068;18.234;2022-12-22T08:12:07;100234.81;;;4.06;100.00
21357;BME280;10836;53.068;18.234;2022-12-22T08:14:34;100233.97;;;4.06;100.00
21357;BME280;10836;53.068;18.234;2022-12-22T08:17:01;100225.16;;;4.10;100.00
21357;BME280;10836;53.068;18.234;2022-12-22T08:19:28;100226.25;;;3.97;100.00
21357;BME280;10836;53.068;18.234;2022-12-22T08:21:55;100218.72;;;3.99;100.00
21357;BME280;10836;53.068;18.234;2022-12-22T08:24:22;100211.50;;;4.17;100.00
21357;BME280;10836;53.068;18.234;2022-12-22T08:26:52;100210.44;;;4.18;100.00
21357;BME280;10836;53.068;18.234;2022-12-22T08:29:26;100212.06;;;4.19;100.00
21357;BME280;10836;53.068;18.234;2022-12-22T08:31:55;100207.25;;;4.21;100.00
21357;BME280;10836;53.068;18.234;2022-12-22T08:34:22;100210.19;;;4.19;100.00
21357;BME280;10836;53.068;18.234;2022-12-22T08:36:52;100203.38;;;4.17;100.00
21357;BME280;10836;53.068;18.234;2022-12-22T08:39:22;100197.81;;;4.40;100.00
21357;BME280;10836;53.068;18.234;2022-12-22T08:41:53;100206.38;;;4.32;100.00
21357;BME280;10836;53.068;18.234;2022-12-22T08:44:25;100191.84;;;4.55;100.00
21357;BME280;10836;53.068;18.234;2022-12-22T08:46:55;100195.03;;;4.52;100.00
21357;BME280;10836;53.068;18.234;2022-12-22T08:49:23;100202.41;;;4.56;100.00
21357;BME280;10836;53.068;18.234;2022-12-22T08:51:51;100206.44;;;4.71;100.00
21357;BME280;10836;53.068;18.234;2022-12-22T08:54:18;100195.00;;;5.02;100.00
21357;BME280;10836;53.068;18.234;2022-12-22T08:56:46;100194.84;;;4.92;100.00
21357;BME280;10836;53.068;18.234;2022-12-22T08:59:13;100187.13;;;5.22;100.00
21357;BME280;10836;53.068;18.234;2022-12-22T09:01:41;100182.06;;;5.48;100.00
21357;BME280;10836;53.068;18.234;2022-12-22T09:04:14;100188.13;;;6.09;100.00
21357;BME280;10836;53.068;18.234;2022-12-22T09:06:42;100178.91;;;6.74;100.00
21357;BME280;10836;53.068;18.234;2022-12-22T09:09:10;100176.31;;;6.89;100.00
21357;BME280;10836;53.068;18.234;2022-12-22T09:11:39;100163.41;;;7.79;100.00
21357;BME280;10836;53.068;18.234;2022-12-22T09:14:08;100171.31;;;8.31;100.00
21357;BME280;10836;53.068;18.234;2022-12-22T09:16:36;100173.28;;;8.51;100.00
21357;BME280;10836;53.068;18.234;2022-12-22T09:19:04;100160.22;;;9.53;93.75
21357;BME280;10836;53.068;18.234;2022-12-22T09:21:33;100160.34;;;9.12;94.87
21357;BME280;10836;53.068;18.234;2022-12-22T09:24:00;100165.97;;;9.46;92.93
21357;BME280;10836;53.068;18.234;2022-12-22T09:26:27;100153.06;;;8.97;93.72
21357;BME280;10836;53.068;18.234;2022-12-22T09:28:55;100157.72;;;8.82;96.33
21357;BME280;10836;53.068;18.234;2022-12-22T09:31:24;100146.84;;;8.26;97.38
21357;BME280;10836;53.068;18.234;2022-12-22T09:33:51;100141.72;;;8.60;96.94
21357;BME280;10836;53.068;18.234;2022-12-22T09:36:23;100141.06;;;9.09;93.45
21357;BME280;10836;53.068;18.234;2022-12-22T09:38:50;100125.56;;;8.94;93.51
21357;BME280;10836;53.068;18.234;2022-12-22T09:41:22;100131.59;;;8.25;98.47
21357;BME280;10836;53.068;18.234;2022-12-22T09:43:52;100125.66;;;8.13;97.94
21357;BME280;10836;53.068;18.234;2022-12-22T09:46:24;100116.72;;;9.27;93.44
21357;BME280;10836;53.068;18.234;2022-12-22T09:48:52;100113.09;;;9.91;87.34
21357;BME280;10836;53.068;18.234;2022-12-22T09:51:20;100108.75;;;10.29;86.03
21357;BME280;10836;53.068;18.234;2022-12-22T09:53:56;100105.63;;;10.41;85.70
21357;BME280;10836;53.068;18.234;2022-12-22T09:56:26;100099.44;;;10.59;85.07
21357;BME280;10836;53.068;18.234;2022-12-22T09:58:53;100090.00;;;10.76;82.18
21357;BME280;10836;53.068;18.234;2022-12-22T10:01:48;100084.38;;;10.38;84.02
21357;BME280;10836;53.068;18.234;2022-12-22T10:07:05;100093.53;;;7.89;98.02
21357;BME280;10836;53.068;18.234;2022-12-22T10:09:38;100085.28;;;7.28;100.00
21357;BME280;10836;53.068;18.234;2022-12-22T10:12:21;100062.84;;;6.86;100.00
21357;BME280;10836;53.068;18.234;2022-12-22T10:14:50;100072.31;;;6.31;100.00
21357;BME280;10836;53.068;18.234;2022-12-22T10:17:28;100065.03;;;5.99;100.00
21357;BME280;10836;53.068;18.234;2022-12-22T10:23:23;100065.25;;;5.93;100.00
21357;BME280;10836;53.068;18.234;2022-12-22T10:25:42;100070.06;;;6.23;100.00
21357;BME280;10836;53.068;18.234;2022-12-22T10:28:46;100061.00;;;6.44;100.00
21357;BME280;10836;53.068;18.234;2022-12-22T10:31:20;100058.94;;;5.87;100.00
21357;BME280;10836;53.068;18.234;2022-12-22T10:33:52;100052.94;;;5.85;100.00
21357;BME280;10836;53.068;18.234;2022-12-22T10:36:25;100055.31;;;6.04;100.00
21357;BME280;10836;53.068;18.234;2022-12-22T10:41:28;100054.59;;;5.86;100.00
21357;BME280;10836;53.068;18.234;2022-12-22T10:44:03;100045.28;;;5.77;100.00
21357;BME280;10836;53.068;18.234;2022-12-22T10:46:38;100040.84;;;5.66;100.00
21357;BME280;10836;53.068;18.234;2022-12-22T10:49:18;100032.72;;;5.61;100.00
21357;BME280;10836;53.068;18.234;2022-12-22T10:51:49;100028.16;;;5.40;100.00
21357;BME280;10836;53.068;18.234;2022-12-22T10:57:03;100007.63;;;5.44;100.00
21357;BME280;10836;53.068;18.234;2022-12-22T10:59:32;100002.22;;;5.44;100.00
21357;BME280;10836;53.068;18.234;2022-12-22T11:04:48;99998.72;;;5.21;100.00
21357;BME280;10836;53.068;18.234;2022-12-22T11:07:15;99994.09;;;5.44;100.00
21357;BME280;10836;53.068;18.234;2022-12-22T11:09:42;99993.63;;;5.52;100.00
21357;BME280;10836;53.068;18.234;2022-12-22T11:18:06;99988.81;;;5.64;100.00
21357;BME280;10836;53.068;18.234;2022-12-22T11:24:10;99979.44;;;5.40;100.00
21357;BME280;10836;53.068;18.234;2022-12-22T11:26:56;99977.19;;;5.31;100.00
21357;BME280;10836;53.068;18.234;2022-12-22T11:35:50;99962.25;;;5.56;100.00
21357;BME280;10836;53.068;18.234;2022-12-22T11:38:49;99954.59;;;5.48;100.00
21357;BME280;10836;53.068;18.234;2022-12-22T11:41:45;99953.94;;;5.35;100.00
21357;BME280;10836;53.068;18.234;2022-12-22T11:47:02;99948.56;;;5.41;100.00
21357;BME280;10836;53.068;18.234;2022-12-22T11:49:51;99949.09;;;5.38;100.00
21357;BME280;10836;53.068;18.234;2022-12-22T11:53:15;99943.06;;;5.30;100.00
21357;BME280;10836;53.068;18.234;2022-12-22T11:55:32;99934.56;;;5.49;100.00
21357;BME280;10836;53.068;18.234;2022-12-22T12:00:41;99930.19;;;5.43;100.00
21357;BME280;10836;53.068;18.234;2022-12-22T12:09:38;99916.63;;;5.43;100.00
21357;BME280;10836;53.068;18.234;2022-12-22T12:12:15;99926.19;;;5.50;100.00
21357;BME280;10836;53.068;18.234;2022-12-22T12:14:56;99923.13;;;5.42;100.00
21357;BME280;10836;53.068;18.234;2022-12-22T12:17:45;99922.56;;;5.40;100.00
21357;BME280;10836;53.068;18.234;2022-12-22T12:20:43;99915.25;;;5.40;100.00
21357;BME280;10836;53.068;18.234;2022-12-22T12:26:29;99909.69;;;5.20;100.00
21357;BME280;10836;53.068;18.234;2022-12-22T12:32:01;99905.38;;;5.24;100.00
21357;BME280;10836;53.068;18.234;2022-12-22T12:34:35;99907.81;;;5.25;100.00
21357;BME280;10836;53.068;18.234;2022-12-22T12:37:13;99904.56;;;5.23;100.00
21357;BME280;10836;53.068;18.234;2022-12-22T12:42:35;99900.63;;;5.04;100.00
21357;BME280;10836;53.068;18.234;2022-12-22T12:50:56;99887.59;;;5.01;100.00
21357;BME280;10836;53.068;18.234;2022-12-22T12:53:24;99884.28;;;4.94;100.00
21357;BME280;10836;53.068;18.234;2022-12-22T12:55:52;99882.25;;;5.06;100.00
21357;BME280;10836;53.068;18.234;2022-12-22T13:01:10;99878.97;;;5.04;100.00
21357;BME280;10836;53.068;18.234;2022-12-22T13:03:40;99876.78;;;5.01;100.00
21357;BME280;10836;53.068;18.234;2022-12-22T13:06:48;99875.09;;;4.95;100.00
21357;BME280;10836;53.068;18.234;2022-12-22T13:09:23;99866.38;;;4.88;100.00
21357;BME280;10836;53.068;18.234;2022-12-22T13:12:47;99871.63;;;4.99;100.00
21357;BME280;10836;53.068;18.234;2022-12-22T13:15:34;99875.41;;;4.98;100.00
21357;BME280;10836;53.068;18.234;2022-12-22T13:18:52;99862.84;;;4.87;100.00
21357;BME280;10836;53.068;18.234;2022-12-22T13:26:37;99853.06;;;4.81;100.00
21357;BME280;10836;53.068;18.234;2022-12-22T13:31:58;99847.53;;;4.98;100.00
21357;BME280;10836;53.068;18.234;2022-12-22T13:34:40;99858.66;;;5.01;100.00
21357;BME280;10836;53.068;18.234;2022-12-22T13:37:29;99845.25;;;4.85;100.00
21357;BME280;10836;53.068;18.234;2022-12-22T13:42:50;99843.19;;;4.97;100.00
21357;BME280;10836;53.068;18.234;2022-12-22T13:48:05;99839.72;;;5.01;100.00
21357;BME280;10836;53.068;18.234;2022-12-22T13:50:36;99830.22;;;4.99;100.00
21357;BME280;10836;53.068;18.234;2022-12-22T13:53:07;99837.72;;;4.92;100.00
21357;BME280;10836;53.068;18.234;2022-12-22T13:55:36;99826.91;;;4.92;100.00
21357;BME280;10836;53.068;18.234;2022-12-22T13:58:07;99832.94;;;4.99;100.00
21357;BME280;10836;53.068;18.234;2022-12-22T14:00:38;99836.19;;;5.01;100.00
21357;BME280;10836;53.068;18.234;2022-12-22T14:03:14;99827.50;;;4.99;100.00
21357;BME280;10836;53.068;18.234;2022-12-22T14:06:17;99834.47;;;4.90;100.00
21357;BME280;10836;53.068;18.234;2022-12-22T14:08:45;99833.44;;;4.96;100.00
21357;BME280;10836;53.068;18.234;2022-12-22T14:11:12;99831.81;;;4.95;100.00
21357;BME280;10836;53.068;18.234;2022-12-22T14:13:39;99823.44;;;4.96;100.00
21357;BME280;10836;53.068;18.234;2022-12-22T14:16:10;99824.25;;;4.97;100.00
21357;BME280;10836;53.068;18.234;2022-12-22T14:18:38;99819.44;;;5.04;100.00
21357;BME280;10836;53.068;18.234;2022-12-22T14:21:06;99814.03;;;5.04;100.00
21357;BME280;10836;53.068;18.234;2022-12-22T14:23:37;99812.41;;;5.03;100.00
21357;BME280;10836;53.068;18.234;2022-12-22T14:26:07;99821.06;;;5.05;100.00
21357;BME280;10836;53.068;18.234;2022-12-22T14:28:42;99821.38;;;5.09;100.00
21357;BME280;10836;53.068;18.234;2022-12-22T14:31:16;99822.75;;;5.11;100.00
21357;BME280;10836;53.068;18.234;2022-12-22T14:33:55;99813.00;;;5.10;100.00
21357;BME280;10836;53.068;18.234;2022-12-22T14:36:36;99807.84;;;5.09;100.00
21357;BME280;10836;53.068;18.234;2022-12-22T14:39:23;99807.88;;;5.14;100.00
21357;BME280;10836;53.068;18.234;2022-12-22T14:41:56;99806.56;;;5.16;100.00
21357;BME280;10836;53.068;18.234;2022-12-22T14:44:42;99802.47;;;5.14;100.00
21357;BME280;10836;53.068;18.234;2022-12-22T14:49:52;99801.66;;;5.13;100.00
21357;BME280;10836;53.068;18.234;2022-12-22T14:52:31;99803.03;;;5.21;100.00
21357;BME280;10836;53.068;18.234;2022-12-22T14:55:03;99797.63;;;5.21;100.00